Terminal Aerodrome Forecast
Issued by NWS

Home | Current Version | Previous Version | Text Only | Print | Product List | Glossary Off
Versions: 1 2 3 4 5 6 7 8 9 10 11 12 13 14 15 16 17 18 19 20

915
FTUS43 KTOP 040952 AAA
TAFMHK
TAF AMD
KMHK 040952Z 0410/0506 VRB03KT P6SM -RA BKN015
     FM041100 VRB03KT 3SM BR FEW003
     FM041400 28004KT 4SM BR BKN015
     FM041600 28004KT P6SM SCT100=

USA.gov is the U.S. government's official web portal to all federal, state and local government web resources and services.